VJH587Z VRMM-FSIA
Flight info
| Callsign | VJH587Z |
|---|---|
| Flight time | N/A |
| Altitude | 38000 |
| Route | ESKOL1B ESKOL G465 OTKIR/N0444F390 UM307 ORLOM/N0440F380 DCT TIBUL T146 DULMA DULMA1E |
| Aircraft | E190/M-SDE1E2E3FGHIJ1J3J4J7P2RWXY/LB1D1G1 |
Departure
| Time | N/A |
|---|---|
| Airport | Velana International Airport (VRMM) |
Arrival
| Time | 2026-05-03 21:09 |
|---|---|
| Airport | Seychelles International Airport (FSIA) |
| Time | Latitude | Longitude | Altitude | Speed | Heading |
|---|---|---|---|---|---|
| 2026-05-03 20:15 | -2.12638 | 60.71272 | 39905 ft | 480 kts | 246° |
| 2026-05-03 20:15 | -2.15314 | 60.65172 | 39905 ft | 480 kts | 246° |
| 2026-05-03 20:16 | -2.18003 | 60.59042 | 39906 ft | 480 kts | 246° |
| 2026-05-03 20:16 | -2.20674 | 60.52952 | 39910 ft | 480 kts | 246° |
| 2026-05-03 20:17 | -2.23357 | 60.46832 | 39917 ft | 481 kts | 246° |
| 2026-05-03 20:17 | -2.26031 | 60.40733 | 39921 ft | 479 kts | 246° |
| 2026-05-03 20:18 | -2.28700 | 60.34645 | 39927 ft | 479 kts | 246° |
| 2026-05-03 20:18 | -2.31380 | 60.28532 | 39923 ft | 479 kts | 246° |
| 2026-05-03 20:19 | -2.34058 | 60.22422 | 39923 ft | 480 kts | 246° |
| 2026-05-03 20:19 | -2.36725 | 60.16335 | 39924 ft | 480 kts | 246° |
| 2026-05-03 20:20 | -2.39409 | 60.10210 | 39925 ft | 480 kts | 246° |
| 2026-05-03 20:20 | -2.42087 | 60.04096 | 39925 ft | 480 kts | 246° |
| 2026-05-03 20:21 | -2.44743 | 59.98032 | 39925 ft | 479 kts | 246° |
| 2026-05-03 20:21 | -2.47414 | 59.91928 | 39926 ft | 478 kts | 246° |
| 2026-05-03 20:22 | -2.50071 | 59.85857 | 39926 ft | 479 kts | 246° |
| 2026-05-03 20:22 | -2.52749 | 59.79735 | 39927 ft | 480 kts | 246° |
| 2026-05-03 20:23 | -2.55414 | 59.73643 | 39927 ft | 478 kts | 247° |
| 2026-05-03 20:23 | -2.58080 | 59.67548 | 39927 ft | 478 kts | 246° |
| 2026-05-03 20:24 | -2.60728 | 59.61491 | 39927 ft | 479 kts | 247° |
| 2026-05-03 20:24 | -2.63394 | 59.55395 | 39924 ft | 479 kts | 246° |
| 2026-05-03 20:25 | -2.66045 | 59.49331 | 39918 ft | 478 kts | 246° |
| 2026-05-03 20:25 | -2.68714 | 59.43223 | 39916 ft | 479 kts | 246° |
| 2026-05-03 20:26 | -2.71374 | 59.37138 | 39911 ft | 478 kts | 247° |
| 2026-05-03 20:26 | -2.74026 | 59.31068 | 39905 ft | 477 kts | 247° |
| 2026-05-03 20:27 | -2.76683 | 59.24987 | 39904 ft | 477 kts | 246° |
| 2026-05-03 20:27 | -2.79329 | 59.18930 | 39904 ft | 478 kts | 246° |
| 2026-05-03 20:28 | -2.81982 | 59.12854 | 39905 ft | 477 kts | 246° |
| 2026-05-03 20:28 | -2.84636 | 59.06777 | 39903 ft | 477 kts | 246° |
| 2026-05-03 20:29 | -2.87286 | 59.00706 | 39904 ft | 477 kts | 246° |
| 2026-05-03 20:29 | -2.89938 | 58.94631 | 39907 ft | 477 kts | 246° |
| 2026-05-03 20:30 | -2.92584 | 58.88569 | 39906 ft | 476 kts | 247° |
| 2026-05-03 20:30 | -2.95229 | 58.82508 | 39907 ft | 477 kts | 247° |
| 2026-05-03 20:31 | -2.97878 | 58.76431 | 39908 ft | 477 kts | 247° |
| 2026-05-03 20:31 | -3.00455 | 58.70348 | 39906 ft | 476 kts | 247° |
| 2026-05-03 20:32 | -3.03038 | 58.64256 | 39908 ft | 478 kts | 247° |
| 2026-05-03 20:32 | -3.05625 | 58.58153 | 39908 ft | 476 kts | 247° |
| 2026-05-03 20:33 | -3.08207 | 58.52063 | 39908 ft | 477 kts | 247° |
| 2026-05-03 20:33 | -3.10788 | 58.45971 | 39908 ft | 478 kts | 247° |
| 2026-05-03 20:34 | -3.13385 | 58.39843 | 39904 ft | 478 kts | 247° |
| 2026-05-03 20:34 | -3.15968 | 58.33746 | 39904 ft | 479 kts | 247° |
| 2026-05-03 20:35 | -3.18563 | 58.27620 | 39904 ft | 477 kts | 247° |
| 2026-05-03 20:35 | -3.21149 | 58.21511 | 39906 ft | 478 kts | 247° |
| 2026-05-03 20:36 | -3.23730 | 58.15416 | 39900 ft | 478 kts | 247° |
| 2026-05-03 20:36 | -3.26318 | 58.09301 | 39904 ft | 479 kts | 247° |
| 2026-05-03 20:37 | -3.28918 | 58.03159 | 39904 ft | 479 kts | 247° |
| 2026-05-03 20:37 | -3.31511 | 57.97031 | 39906 ft | 479 kts | 247° |
| 2026-05-03 20:38 | -3.34100 | 57.90910 | 39903 ft | 478 kts | 247° |
| 2026-05-03 20:38 | -3.36689 | 57.84790 | 39906 ft | 479 kts | 247° |
| 2026-05-03 20:39 | -3.39286 | 57.78650 | 39902 ft | 478 kts | 247° |
| 2026-05-03 20:39 | -3.41874 | 57.72528 | 39905 ft | 480 kts | 247° |
| 2026-05-03 20:40 | -3.44856 | 57.66577 | 39918 ft | 481 kts | 240° |
| 2026-05-03 20:40 | -3.48181 | 57.60818 | 39906 ft | 479 kts | 240° |
| 2026-05-03 20:41 | -3.51482 | 57.55090 | 39891 ft | 465 kts | 240° |
| 2026-05-03 20:41 | -3.54687 | 57.49527 | 39911 ft | 460 kts | 240° |
| 2026-05-03 20:42 | -3.57873 | 57.43995 | 39918 ft | 462 kts | 240° |
| 2026-05-03 20:42 | -3.61080 | 57.38428 | 39921 ft | 463 kts | 240° |
| 2026-05-03 20:42 | -3.62681 | 57.35647 | 39744 ft | 451 kts | 240° |
| 2026-05-03 20:43 | -3.64220 | 57.32973 | 38977 ft | 448 kts | 240° |
| 2026-05-03 20:43 | -3.65784 | 57.30257 | 37845 ft | 452 kts | 240° |
| 2026-05-03 20:43 | -3.67356 | 57.27528 | 36635 ft | 458 kts | 240° |
| 2026-05-03 20:43 | -3.68953 | 57.24753 | 35433 ft | 464 kts | 240° |
| 2026-05-03 20:44 | -3.70561 | 57.21959 | 34310 ft | 466 kts | 240° |
| 2026-05-03 20:44 | -3.72179 | 57.19147 | 33214 ft | 468 kts | 240° |
| 2026-05-03 20:44 | -3.73800 | 57.16330 | 32150 ft | 470 kts | 240° |
| 2026-05-03 20:44 | -3.75432 | 57.13495 | 31117 ft | 471 kts | 240° |
| 2026-05-03 20:45 | -3.77045 | 57.10692 | 30078 ft | 473 kts | 240° |
| 2026-05-03 20:45 | -3.78682 | 57.07846 | 29144 ft | 470 kts | 240° |
| 2026-05-03 20:45 | -3.80294 | 57.05044 | 28432 ft | 462 kts | 240° |
| 2026-05-03 20:45 | -3.81893 | 57.02264 | 27760 ft | 454 kts | 240° |
| 2026-05-03 20:46 | -3.83445 | 56.99566 | 27100 ft | 447 kts | 240° |
| 2026-05-03 20:46 | -3.84981 | 56.96894 | 26380 ft | 441 kts | 240° |
| 2026-05-03 20:46 | -3.86496 | 56.94260 | 25627 ft | 437 kts | 240° |
| 2026-05-03 20:46 | -3.88009 | 56.91629 | 24889 ft | 432 kts | 240° |
| 2026-05-03 20:47 | -3.89506 | 56.89026 | 24226 ft | 431 kts | 240° |
| 2026-05-03 20:47 | -3.90981 | 56.86459 | 23681 ft | 430 kts | 240° |
| 2026-05-03 20:47 | -3.92480 | 56.83851 | 23127 ft | 425 kts | 240° |
| 2026-05-03 20:47 | -3.93939 | 56.81313 | 22574 ft | 418 kts | 240° |
| 2026-05-03 20:48 | -3.95377 | 56.78811 | 22033 ft | 413 kts | 240° |
| 2026-05-03 20:48 | -3.96798 | 56.76339 | 21507 ft | 409 kts | 240° |
| 2026-05-03 20:48 | -3.98201 | 56.73897 | 20980 ft | 404 kts | 240° |
| 2026-05-03 20:48 | -3.99593 | 56.71475 | 20452 ft | 401 kts | 240° |
| 2026-05-03 20:49 | -4.00970 | 56.69078 | 19924 ft | 398 kts | 240° |
| 2026-05-03 20:49 | -4.02354 | 56.66669 | 19457 ft | 393 kts | 240° |
| 2026-05-03 20:49 | -4.03706 | 56.64315 | 19023 ft | 390 kts | 239° |
| 2026-05-03 20:49 | -4.05051 | 56.61975 | 18586 ft | 388 kts | 239° |
| 2026-05-03 20:50 | -4.06385 | 56.59652 | 18149 ft | 385 kts | 239° |
| 2026-05-03 20:50 | -4.07726 | 56.57317 | 17707 ft | 383 kts | 239° |
| 2026-05-03 20:50 | -4.09039 | 56.55032 | 17271 ft | 378 kts | 240° |
| 2026-05-03 20:50 | -4.10337 | 56.52771 | 16831 ft | 375 kts | 240° |
| 2026-05-03 20:51 | -4.11633 | 56.50514 | 16388 ft | 371 kts | 240° |
| 2026-05-03 20:51 | -4.12915 | 56.48280 | 15945 ft | 368 kts | 240° |
| 2026-05-03 20:51 | -4.14184 | 56.46070 | 15504 ft | 365 kts | 240° |
| 2026-05-03 20:51 | -4.15444 | 56.43874 | 15063 ft | 364 kts | 240° |
| 2026-05-03 20:52 | -4.16698 | 56.41691 | 14624 ft | 361 kts | 240° |
| 2026-05-03 20:52 | -4.17944 | 56.39520 | 14177 ft | 359 kts | 240° |
| 2026-05-03 20:52 | -4.19173 | 56.37378 | 13731 ft | 355 kts | 240° |
| 2026-05-03 20:52 | -4.20394 | 56.35251 | 13287 ft | 352 kts | 240° |
| 2026-05-03 20:53 | -4.21606 | 56.33138 | 12836 ft | 349 kts | 241° |
| 2026-05-03 20:53 | -4.22809 | 56.31042 | 12389 ft | 345 kts | 241° |
| 2026-05-03 20:53 | -4.23997 | 56.28972 | 11984 ft | 341 kts | 241° |
| 2026-05-03 20:53 | -4.25188 | 56.26894 | 11919 ft | 340 kts | 241° |
| 2026-05-03 20:54 | -4.26367 | 56.24839 | 11910 ft | 342 kts | 241° |
| 2026-05-03 20:54 | -4.28748 | 56.20687 | 11903 ft | 343 kts | 241° |
| 2026-05-03 20:54 | -4.29931 | 56.18624 | 11904 ft | 344 kts | 241° |
| 2026-05-03 20:55 | -4.31131 | 56.16531 | 11866 ft | 344 kts | 241° |
| 2026-05-03 20:55 | -4.32315 | 56.14467 | 11653 ft | 343 kts | 241° |
| 2026-05-03 20:55 | -4.33496 | 56.12408 | 11382 ft | 336 kts | 241° |
| 2026-05-03 20:55 | -4.34649 | 56.10397 | 11112 ft | 329 kts | 241° |
| 2026-05-03 20:56 | -4.35779 | 56.08425 | 10839 ft | 322 kts | 241° |
| 2026-05-03 20:56 | -4.36874 | 56.06515 | 10569 ft | 315 kts | 241° |
| 2026-05-03 20:56 | -4.37955 | 56.04630 | 10300 ft | 309 kts | 241° |
| 2026-05-03 20:56 | -4.39017 | 56.02777 | 10030 ft | 303 kts | 242° |
| 2026-05-03 20:57 | -4.40057 | 56.00962 | 9760 ft | 297 kts | 242° |
| 2026-05-03 20:57 | -4.41083 | 55.99171 | 9493 ft | 294 kts | 242° |
| 2026-05-03 20:57 | -4.42102 | 55.97394 | 9232 ft | 293 kts | 242° |
| 2026-05-03 20:57 | -4.43234 | 55.95698 | 8963 ft | 294 kts | 226° |
| 2026-05-03 20:58 | -4.44759 | 55.94323 | 8731 ft | 294 kts | 223° |
| 2026-05-03 20:58 | -4.46299 | 55.92976 | 8475 ft | 293 kts | 222° |
| 2026-05-03 20:58 | -4.47835 | 55.91631 | 8214 ft | 292 kts | 223° |
| 2026-05-03 20:58 | -4.49349 | 55.90305 | 7955 ft | 291 kts | 222° |
| 2026-05-03 20:59 | -4.50870 | 55.88974 | 7694 ft | 289 kts | 223° |
| 2026-05-03 20:59 | -4.52399 | 55.87635 | 7431 ft | 288 kts | 223° |
| 2026-05-03 20:59 | -4.53894 | 55.86326 | 7171 ft | 287 kts | 223° |
| 2026-05-03 20:59 | -4.55394 | 55.85012 | 6910 ft | 285 kts | 223° |
| 2026-05-03 21:00 | -4.56887 | 55.83704 | 6650 ft | 284 kts | 223° |
| 2026-05-03 21:00 | -4.57393 | 55.83260 | 6562 ft | 283 kts | 223° |
| 2026-05-03 21:00 | -4.59858 | 55.81101 | 6125 ft | 281 kts | 223° |
| 2026-05-03 21:00 | -4.61327 | 55.79814 | 5856 ft | 277 kts | 223° |
| 2026-05-03 21:01 | -4.62763 | 55.78556 | 5580 ft | 268 kts | 223° |
| 2026-05-03 21:01 | -4.64151 | 55.77340 | 5300 ft | 261 kts | 223° |
| 2026-05-03 21:01 | -4.65497 | 55.76161 | 5027 ft | 255 kts | 222° |
| 2026-05-03 21:01 | -4.66821 | 55.75000 | 4755 ft | 249 kts | 222° |
| 2026-05-03 21:02 | -4.68104 | 55.73877 | 4489 ft | 243 kts | 222° |
| 2026-05-03 21:02 | -4.69363 | 55.72787 | 4404 ft | 230 kts | 218° |
| 2026-05-03 21:02 | -4.70662 | 55.71876 | 4439 ft | 218 kts | 216° |
| 2026-05-03 21:02 | -4.71868 | 55.71050 | 4305 ft | 207 kts | 216° |
| 2026-05-03 21:03 | -4.73050 | 55.70240 | 4050 ft | 203 kts | 216° |
| 2026-05-03 21:03 | -4.74201 | 55.69451 | 3794 ft | 198 kts | 216° |
| 2026-05-03 21:03 | -4.75327 | 55.68679 | 3547 ft | 193 kts | 216° |
| 2026-05-03 21:03 | -4.76419 | 55.67917 | 3270 ft | 189 kts | 222° |
| 2026-05-03 21:04 | -4.77010 | 55.66803 | 2988 ft | 181 kts | 268° |
| 2026-05-03 21:04 | -4.76661 | 55.65638 | 2745 ft | 174 kts | 302° |
| 2026-05-03 21:04 | -4.76059 | 55.64604 | 2516 ft | 166 kts | 300° |
| 2026-05-03 21:04 | -4.75469 | 55.63660 | 2361 ft | 154 kts | 303° |
| 2026-05-03 21:05 | -4.74894 | 55.62793 | 2167 ft | 146 kts | 303° |
| 2026-05-03 21:05 | -4.74323 | 55.61960 | 1990 ft | 142 kts | 304° |
| 2026-05-03 21:05 | -4.73768 | 55.61176 | 1798 ft | 133 kts | 304° |
| 2026-05-03 21:05 | -4.73246 | 55.60435 | 1659 ft | 130 kts | 304° |
| 2026-05-03 21:06 | -4.72722 | 55.59690 | 1500 ft | 130 kts | 304° |
| 2026-05-03 21:06 | -4.72191 | 55.58935 | 1332 ft | 131 kts | 304° |
| 2026-05-03 21:06 | -4.71668 | 55.58191 | 1164 ft | 131 kts | 305° |
| 2026-05-03 21:06 | -4.71138 | 55.57438 | 992 ft | 131 kts | 305° |
| 2026-05-03 21:07 | -4.70613 | 55.56692 | 824 ft | 131 kts | 305° |
| 2026-05-03 21:07 | -4.70085 | 55.55946 | 660 ft | 131 kts | 304° |
| 2026-05-03 21:07 | -4.69556 | 55.55203 | 499 ft | 132 kts | 305° |
| 2026-05-03 21:07 | -4.69028 | 55.54444 | 334 ft | 131 kts | 304° |
| 2026-05-03 21:08 | -4.68502 | 55.53699 | 203 ft | 131 kts | 305° |
| 2026-05-03 21:08 | -4.67976 | 55.52956 | 49 ft | 132 kts | 304° |
| 2026-05-03 21:08 | -4.67481 | 55.52248 | 15 ft | 106 kts | 305° |
| 2026-05-03 21:08 | -4.67141 | 55.51767 | 20 ft | 63 kts | 305° |
| 2026-05-03 21:09 | -4.66958 | 55.51506 | 20 ft | 26 kts | 306° |
| 2026-05-03 21:09 | -4.66895 | 55.51400 | 20 ft | 14 kts | 261° |
| 2026-05-03 21:09 | -4.66962 | 55.51334 | 20 ft | 13 kts | 214° |
| 2026-05-03 21:09 | -4.67025 | 55.51305 | 20 ft | 7 kts | 178° |
| 2026-05-03 21:10 | -4.67076 | 55.51316 | 20 ft | 7 kts | 184° |
| 2026-05-03 21:10 | -4.67114 | 55.51294 | 20 ft | 0 kts | 215° |